createdAt,value
2023-09-08T00:00:18.172Z,77.51
2023-09-08T00:03:06.418Z,77.53
2023-09-08T00:05:34.651Z,77.84
2023-09-08T00:08:02.728Z,77.84
2023-09-08T00:10:30.928Z,78.54
2023-09-08T00:12:58.902Z,79.15
2023-09-08T00:15:27.013Z,79.43
2023-09-08T00:17:55.120Z,79.32
2023-09-08T00:20:23.364Z,79.22
2023-09-08T00:22:51.531Z,79.23
2023-09-08T00:25:19.781Z,79.92
2023-09-08T00:27:47.733Z,80.08
2023-09-08T00:30:15.850Z,80.07
2023-09-08T00:32:44.221Z,81.04
2023-09-08T00:35:14.317Z,80.66
2023-09-08T00:37:42.551Z,80.82
2023-09-08T00:40:11.842Z,81.12
2023-09-08T00:42:39.890Z,81.27
2023-09-08T00:45:08.386Z,81.01
2023-09-08T00:47:36.564Z,81.11
2023-09-08T00:50:06.097Z,80.84
2023-09-08T00:52:35.257Z,81.55
2023-09-08T00:55:03.408Z,81.12
2023-09-08T00:57:32.274Z,80.15
2023-09-08T01:00:00.850Z,81.07
2023-09-08T01:02:29.742Z,81.50
2023-09-08T01:05:01.047Z,81.40
2023-09-08T01:07:55.357Z,81.54
2023-09-08T01:10:23.892Z,81.10
2023-09-08T01:12:51.857Z,82.23
2023-09-08T01:15:20.532Z,82.71
2023-09-08T01:17:48.652Z,82.82
2023-09-08T01:20:24.272Z,82.43
2023-09-08T01:23:10.291Z,81.61
2023-09-08T01:25:52.263Z,81.21
2023-09-08T01:28:21.747Z,80.95
2023-09-08T01:30:50.736Z,81.38
2023-09-08T01:36:12.728Z,81.83
2023-09-08T01:38:40.923Z,81.35
2023-09-08T01:41:09.445Z,80.16
2023-09-08T01:43:37.500Z,79.92
2023-09-08T01:46:05.896Z,79.94
2023-09-08T01:48:34.451Z,79.64
2023-09-08T01:51:02.654Z,79.28
2023-09-08T01:53:30.720Z,79.72
2023-09-08T01:55:58.986Z,80.06
2023-09-08T01:58:27.741Z,79.33
2023-09-08T02:00:56.698Z,79.61
2023-09-08T02:03:24.822Z,79.69
2023-09-08T02:05:52.874Z,80.32
2023-09-08T02:08:21.086Z,80.23
2023-09-08T02:11:14.402Z,80.39
2023-09-08T02:13:45.354Z,80.86
2023-09-08T02:16:17.731Z,80.30
2023-09-08T02:18:46.909Z,80.41
2023-09-08T02:21:15.068Z,80.79
2023-09-08T02:23:43.210Z,80.97
2023-09-08T02:26:12.241Z,80.99
2023-09-08T02:28:40.360Z,80.83
2023-09-08T02:31:08.552Z,80.55
2023-09-08T02:33:36.718Z,81.40
2023-09-08T02:36:07.033Z,82.23
2023-09-08T02:38:37.151Z,83.07
2023-09-08T02:41:06.905Z,83.58
2023-09-08T02:43:34.992Z,83.31
2023-09-08T02:46:03.177Z,82.95
2023-09-08T02:48:32.685Z,83.12
2023-09-08T02:51:00.770Z,83.96
2023-09-08T02:53:30.053Z,83.79
2023-09-08T02:55:59.451Z,84.02
2023-09-08T02:58:28.876Z,83.93
2023-09-08T03:00:57.913Z,84.91
2023-09-08T03:03:26.144Z,84.33
2023-09-08T03:05:57.813Z,84.43
2023-09-08T03:08:26.639Z,84.50
2023-09-08T03:10:57.969Z,83.52
2023-09-08T03:13:30.356Z,83.69
2023-09-08T03:15:58.653Z,83.97
2023-09-08T03:18:26.782Z,84.52
2023-09-08T03:20:55.153Z,84.47
2023-09-08T03:23:23.848Z,84.70
2023-09-08T03:25:51.838Z,84.84
2023-09-08T03:28:20.004Z,84.44
2023-09-08T03:30:47.967Z,84.48
2023-09-08T03:33:16.373Z,84.08
2023-09-08T03:35:45.349Z,84.27
2023-09-08T03:38:13.494Z,83.70
2023-09-08T03:40:42.002Z,82.89
2023-09-08T03:43:10.121Z,83.11
2023-09-08T03:45:38.164Z,82.41
2023-09-08T03:48:06.890Z,82.72
2023-09-08T03:50:35.998Z,82.48
2023-09-08T03:53:04.941Z,81.78
2023-09-08T03:55:33.745Z,82.14
2023-09-08T03:58:01.744Z,83.10
2023-09-08T04:05:17.618Z,84.03
2023-09-08T04:07:46.998Z,84.72
2023-09-08T04:10:15.910Z,85.69
2023-09-08T04:12:45.411Z,85.57
2023-09-08T04:15:13.640Z,85.70
2023-09-08T04:17:41.919Z,85.92
2023-09-08T04:20:10.674Z,85.67
2023-09-08T04:22:38.703Z,85.47
2023-09-08T04:25:07.882Z,85.41
2023-09-08T04:27:37.881Z,85.32
2023-09-08T04:34:41.531Z,85.36
2023-09-08T04:37:10.268Z,84.62
2023-09-08T04:39:38.510Z,83.96
2023-09-08T04:42:07.464Z,82.89
2023-09-08T04:44:35.617Z,81.89
2023-09-08T04:47:04.560Z,80.23
2023-09-08T04:49:33.082Z,78.40
2023-09-08T04:52:01.511Z,77.52
2023-09-08T04:54:31.145Z,77.64
2023-09-08T04:57:11.785Z,77.70
2023-09-08T04:59:49.288Z,77.94
2023-09-08T05:02:19.784Z,77.81
2023-09-08T05:04:48.476Z,77.83
2023-09-08T05:07:18.330Z,77.73
2023-09-08T05:09:46.542Z,77.53
2023-09-08T05:12:14.895Z,77.51
2023-09-08T05:14:43.318Z,77.23
2023-09-08T05:17:12.247Z,76.72
2023-09-08T05:19:40.327Z,76.45
2023-09-08T05:22:08.474Z,76.27
2023-09-08T05:24:36.608Z,75.86
2023-09-08T05:27:05.734Z,75.63
2023-09-08T05:29:34.978Z,75.37
2023-09-08T05:32:03.531Z,75.26
2023-09-08T05:34:32.305Z,75.04
2023-09-08T05:37:00.573Z,74.53
2023-09-08T05:39:29.113Z,74.95
2023-09-08T05:41:57.818Z,74.99
2023-09-08T05:44:26.501Z,74.32
2023-09-08T05:46:55.479Z,73.96
2023-09-08T05:49:25.041Z,73.37
2023-09-08T05:51:53.330Z,73.31
2023-09-08T05:54:21.677Z,73.41
2023-09-08T05:56:49.894Z,72.54
2023-09-08T05:59:17.793Z,72.63
2023-09-08T06:01:46.234Z,72.43
2023-09-08T06:04:14.811Z,71.33
2023-09-08T06:06:43.350Z,71.11
2023-09-08T06:09:13.312Z,70.44
2023-09-08T06:11:41.855Z,70.81
2023-09-08T06:14:10.656Z,69.58
2023-09-08T06:16:41.391Z,69.69
2023-09-08T06:19:10.156Z,69.06
2023-09-08T06:21:38.245Z,67.91
2023-09-08T06:24:07.884Z,67.60
2023-09-08T06:26:36.674Z,67.78
2023-09-08T06:29:05.118Z,66.97
2023-09-08T06:31:33.243Z,66.22
2023-09-08T06:34:01.611Z,66.08
2023-09-08T06:36:30.438Z,65.80
2023-09-08T06:38:58.655Z,64.95
2023-09-08T06:41:28.336Z,64.49
2023-09-08T06:43:57.483Z,63.99
2023-09-08T06:46:29.688Z,64.24
2023-09-08T06:48:58.478Z,63.20
2023-09-08T06:51:26.930Z,62.56
2023-09-08T06:53:57.779Z,61.95
2023-09-08T06:56:28.048Z,62.24
2023-09-08T06:58:56.335Z,61.37
2023-09-08T07:01:25.028Z,61.01
2023-09-08T07:03:53.342Z,60.34
2023-09-08T07:06:25.509Z,58.98
2023-09-08T07:08:53.763Z,58.71
2023-09-08T07:11:22.454Z,57.29
2023-09-08T07:13:50.612Z,57.77
2023-09-08T07:16:19.280Z,56.02
2023-09-08T07:18:47.429Z,56.38
2023-09-08T07:21:15.505Z,56.21
2023-09-08T07:23:43.713Z,54.84
2023-09-08T07:26:12.049Z,55.10
2023-09-08T07:28:41.421Z,54.56
2023-09-08T07:31:13.006Z,56.80
2023-09-08T07:33:42.636Z,54.17
2023-09-08T07:36:11.826Z,53.06
2023-09-08T07:38:40.925Z,51.46
2023-09-08T07:41:09.382Z,53.20
2023-09-08T07:43:41.914Z,52.63
2023-09-08T07:46:11.709Z,52.43
2023-09-08T07:48:40.014Z,52.28
2023-09-08T07:51:08.233Z,50.82
2023-09-08T07:53:36.168Z,51.21
2023-09-08T07:56:05.640Z,51.61
2023-09-08T07:58:34.519Z,51.31
2023-09-08T08:01:04.074Z,50.96
2023-09-08T08:03:32.055Z,50.63
2023-09-08T08:06:00.170Z,48.38
2023-09-08T08:08:28.888Z,50.10
2023-09-08T08:10:56.888Z,49.77
2023-09-08T08:13:24.880Z,47.08
2023-09-08T08:15:52.959Z,47.75
2023-09-08T08:18:21.201Z,48.25
2023-09-08T08:20:49.402Z,48.18
2023-09-08T08:23:17.290Z,48.39
2023-09-08T08:25:45.230Z,51.67
2023-09-08T08:28:13.096Z,51.70
2023-09-08T08:30:41.142Z,50.77
2023-09-08T08:33:09.029Z,50.51
2023-09-08T08:35:37.246Z,49.55
2023-09-08T08:38:05.157Z,48.58
2023-09-08T08:40:35.167Z,48.28
2023-09-08T08:43:03.354Z,47.94
2023-09-08T08:45:31.968Z,47.82
2023-09-08T08:48:01.174Z,49.02
2023-09-08T08:50:29.494Z,48.56
2023-09-08T08:52:57.702Z,48.12
2023-09-08T08:55:27.129Z,49.18
2023-09-08T08:57:55.527Z,48.97
2023-09-08T09:00:23.671Z,50.21
2023-09-08T09:03:03.629Z,50.30
2023-09-08T09:05:43.306Z,49.72
2023-09-08T09:08:14.359Z,48.71
2023-09-08T09:10:42.349Z,48.53
2023-09-08T09:13:10.402Z,48.95
2023-09-08T09:15:38.385Z,48.96
2023-09-08T09:18:07.733Z,48.92
2023-09-08T09:20:36.912Z,49.59
2023-09-08T09:23:07.539Z,49.78
2023-09-08T09:25:37.482Z,49.92
2023-09-08T09:28:06.308Z,50.61
2023-09-08T09:30:50.717Z,51.00
2023-09-08T09:33:19.231Z,50.68
2023-09-08T09:35:51.073Z,50.08
2023-09-08T09:38:20.531Z,49.45
2023-09-08T09:40:50.285Z,49.59
2023-09-08T09:43:22.136Z,49.40
2023-09-08T09:45:51.863Z,49.90
2023-09-08T09:48:20.869Z,49.73
2023-09-08T09:50:49.940Z,49.83
2023-09-08T09:53:18.096Z,47.62
2023-09-08T09:55:46.665Z,47.62
2023-09-08T09:58:15.946Z,48.22
2023-09-08T10:00:49.642Z,48.79
2023-09-08T10:03:19.204Z,48.85
2023-09-08T10:05:49.674Z,49.56
2023-09-08T10:08:18.900Z,50.48
2023-09-08T10:10:48.797Z,47.95
2023-09-08T10:13:21.378Z,44.92
2023-09-08T10:15:51.290Z,45.49
2023-09-08T10:18:20.663Z,45.16
2023-09-08T10:20:49.329Z,46.55
2023-09-08T10:23:23.910Z,48.39
2023-09-08T10:25:55.884Z,49.12
2023-09-08T10:28:24.426Z,47.93
2023-09-08T10:30:53.130Z,48.49
2023-09-08T10:33:21.850Z,48.24
2023-09-08T10:35:50.115Z,48.49
2023-09-08T10:38:28.461Z,48.27
2023-09-08T10:41:15.373Z,48.41
2023-09-08T10:43:47.507Z,48.28
2023-09-08T10:46:22.600Z,48.88
2023-09-08T10:48:50.797Z,48.67
2023-09-08T10:51:19.034Z,47.95
2023-09-08T10:53:48.113Z,47.93
2023-09-08T10:56:18.232Z,47.57
2023-09-08T10:58:50.145Z,48.18
2023-09-08T11:04:39.291Z,48.15
2023-09-08T11:07:07.320Z,47.23
2023-09-08T11:09:38.773Z,47.15
2023-09-08T11:12:09.584Z,46.49
2023-09-08T11:14:37.772Z,45.54
2023-09-08T11:17:05.820Z,42.14
2023-09-08T11:19:48.747Z,43.24
2023-09-08T11:22:20.513Z,45.18
2023-09-08T11:24:49.791Z,47.37
2023-09-08T11:27:18.617Z,46.80
2023-09-08T11:29:46.935Z,46.85
2023-09-08T11:32:16.209Z,47.03
2023-09-08T11:34:49.249Z,46.94
2023-09-08T11:37:20.457Z,45.39
2023-09-08T11:39:48.903Z,44.41
2023-09-08T11:42:17.733Z,44.50
2023-09-08T11:44:45.951Z,43.99
2023-09-08T11:47:14.223Z,43.72
2023-09-08T11:49:43.327Z,43.12
2023-09-08T11:52:12.401Z,43.24
2023-09-08T11:54:51.912Z,44.63
2023-09-08T11:57:29.942Z,44.93
2023-09-08T11:59:59.269Z,43.61
2023-09-08T12:02:27.792Z,44.72
2023-09-08T12:04:56.164Z,44.27
2023-09-08T12:07:24.870Z,43.55
2023-09-08T12:09:52.945Z,44.60
2023-09-08T12:12:21.097Z,46.48
2023-09-08T12:14:49.130Z,44.72
2023-09-08T12:17:18.923Z,44.14
2023-09-08T12:19:47.075Z,44.34
2023-09-08T12:22:20.028Z,43.87
2023-09-08T12:25:09.643Z,47.43
2023-09-08T12:27:38.779Z,48.22
2023-09-08T12:30:09.656Z,48.26
2023-09-08T12:32:38.089Z,48.04
2023-09-08T12:35:06.451Z,45.72
2023-09-08T12:37:35.165Z,45.46
2023-09-08T12:40:03.432Z,47.69
2023-09-08T12:42:35.335Z,49.38
2023-09-08T12:45:08.902Z,49.72
2023-09-08T12:47:37.228Z,48.08
2023-09-08T12:50:06.265Z,47.61
2023-09-08T12:52:34.251Z,48.13
2023-09-08T12:55:02.296Z,48.47
2023-09-08T12:57:31.678Z,49.95
2023-09-08T13:00:00.252Z,48.30
2023-09-08T13:02:28.450Z,46.68
2023-09-08T13:04:56.987Z,46.16
2023-09-08T13:07:25.463Z,45.71
2023-09-08T13:09:53.931Z,45.15
2023-09-08T13:12:22.170Z,45.96
2023-09-08T13:14:50.547Z,45.40
2023-09-08T13:17:18.668Z,48.69
2023-09-08T13:19:46.744Z,49.21
2023-09-08T13:22:15.220Z,48.03
2023-09-08T13:24:43.997Z,48.56
2023-09-08T13:27:13.010Z,48.93
2023-09-08T13:29:41.058Z,48.61
2023-09-08T13:32:09.126Z,50.36
2023-09-08T13:34:37.381Z,49.60
2023-09-08T13:37:05.949Z,48.74
2023-09-08T13:39:34.174Z,48.18
2023-09-08T13:42:03.496Z,48.25
2023-09-08T13:44:41.400Z,46.51
2023-09-08T13:47:27.965Z,47.30
2023-09-08T13:49:58.455Z,47.55
2023-09-08T13:52:28.245Z,45.98
2023-09-08T13:57:30.590Z,46.07
2023-09-08T13:59:58.916Z,44.87
2023-09-08T14:05:02.613Z,46.37
2023-09-08T14:07:37.408Z,46.78
2023-09-08T14:12:41.659Z,47.10
2023-09-08T14:15:09.973Z,47.60
2023-09-08T14:17:38.332Z,47.75
2023-09-08T14:20:06.953Z,48.85
2023-09-08T14:22:34.904Z,47.52
2023-09-08T14:25:02.929Z,48.04
2023-09-08T14:27:30.839Z,47.77
2023-09-08T14:29:58.823Z,49.27
2023-09-08T14:32:26.776Z,49.14
2023-09-08T14:34:54.909Z,48.27
2023-09-08T14:37:23.685Z,49.42
2023-09-08T14:39:51.770Z,50.19
2023-09-08T14:42:19.836Z,49.78
2023-09-08T14:44:48.114Z,49.26
2023-09-08T14:47:16.169Z,49.32
2023-09-08T14:49:44.384Z,49.29
2023-09-08T14:52:12.410Z,48.91
2023-09-08T14:54:41.752Z,50.67
2023-09-08T14:57:10.015Z,48.87
2023-09-08T14:59:38.335Z,48.21
2023-09-08T15:02:07.779Z,48.73
2023-09-08T15:04:35.861Z,48.17
2023-09-08T15:07:04.798Z,49.94
2023-09-08T15:09:32.994Z,51.51
2023-09-08T15:12:01.038Z,50.51
2023-09-08T15:14:29.053Z,49.32
2023-09-08T15:16:57.029Z,49.60
2023-09-08T15:19:24.990Z,50.18
2023-09-08T15:21:52.927Z,49.70
2023-09-08T15:24:21.116Z,49.74
2023-09-08T15:26:51.185Z,49.62
2023-09-08T15:29:21.303Z,49.52
2023-09-08T15:31:49.955Z,50.55
2023-09-08T15:34:19.055Z,50.95
2023-09-08T15:36:48.998Z,50.74
2023-09-08T15:39:16.954Z,49.84
2023-09-08T15:41:45.932Z,51.18
2023-09-08T15:44:15.327Z,50.88
2023-09-08T15:46:43.978Z,51.19
2023-09-08T15:49:12.402Z,52.26
2023-09-08T15:51:41.569Z,51.46
2023-09-08T15:54:13.268Z,52.18
2023-09-08T15:56:41.305Z,51.61
2023-09-08T15:59:09.281Z,54.01
2023-09-08T16:01:37.628Z,54.27
2023-09-08T16:04:10.421Z,55.38
2023-09-08T16:06:39.045Z,56.71
2023-09-08T16:09:07.300Z,57.03
2023-09-08T16:11:35.270Z,59.05
2023-09-08T16:14:03.148Z,61.99
2023-09-08T16:16:31.497Z,62.39
2023-09-08T16:18:59.485Z,63.13
2023-09-08T16:21:27.443Z,63.30
2023-09-08T16:23:57.181Z,63.13
2023-09-08T16:26:25.537Z,63.15
2023-09-08T16:28:54.018Z,63.65
2023-09-08T16:31:22.028Z,63.72
2023-09-08T16:33:49.987Z,63.78
2023-09-08T16:36:18.978Z,63.64
2023-09-08T16:38:47.056Z,64.04
2023-09-08T16:41:15.024Z,64.11
2023-09-08T16:43:43.962Z,64.29
2023-09-08T16:46:15.427Z,64.66
2023-09-08T16:48:44.116Z,64.67
2023-09-08T16:51:12.116Z,65.06
2023-09-08T16:53:40.199Z,65.54
2023-09-08T16:56:10.311Z,65.64
2023-09-08T16:58:38.497Z,65.49
2023-09-08T17:01:06.569Z,65.96
2023-09-08T17:03:35.001Z,65.96
2023-09-08T17:06:03.214Z,65.78
2023-09-08T17:08:31.548Z,66.11
2023-09-08T17:11:06.858Z,66.72
2023-09-08T17:13:35.511Z,66.96
2023-09-08T17:16:04.205Z,67.31
2023-09-08T17:18:32.795Z,67.14
2023-09-08T17:21:01.597Z,67.15
2023-09-08T17:23:29.702Z,66.49
2023-09-08T17:25:57.774Z,66.47
2023-09-08T17:28:26.864Z,67.34
2023-09-08T17:30:55.103Z,67.50
2023-09-08T17:33:26.201Z,68.04
2023-09-08T17:35:54.287Z,68.13
2023-09-08T17:38:22.316Z,68.45
2023-09-08T17:40:51.459Z,68.67
2023-09-08T17:43:19.757Z,69.02
2023-09-08T17:45:47.836Z,69.12
2023-09-08T17:48:16.064Z,69.71
2023-09-08T17:50:44.900Z,69.28
2023-09-08T17:53:12.988Z,70.03
2023-09-08T17:55:41.042Z,70.34
2023-09-08T17:58:09.136Z,70.59
2023-09-08T18:00:37.243Z,70.72
2023-09-08T18:03:05.955Z,70.81
2023-09-08T18:05:34.144Z,70.43
2023-09-08T18:08:02.471Z,70.45
2023-09-08T18:10:30.707Z,70.64
2023-09-08T18:12:58.819Z,71.86
2023-09-08T18:15:26.984Z,71.24
2023-09-08T18:17:55.028Z,71.27
2023-09-08T18:20:23.343Z,71.47
2023-09-08T18:22:55.715Z,73.45
2023-09-08T18:25:24.066Z,73.24
2023-09-08T18:27:52.125Z,73.23
2023-09-08T18:30:20.275Z,72.14
2023-09-08T18:32:50.760Z,72.75
2023-09-08T18:35:18.683Z,72.95
2023-09-08T18:37:46.768Z,73.13
2023-09-08T18:40:14.804Z,73.57
2023-09-08T18:42:42.858Z,72.52
2023-09-08T18:45:11.388Z,72.52
2023-09-08T18:47:39.582Z,72.72
2023-09-08T18:50:08.169Z,72.94
2023-09-08T18:52:36.241Z,73.28
2023-09-08T18:55:07.404Z,73.48
2023-09-08T18:57:35.501Z,73.89
2023-09-08T19:04:36.434Z,75.61
2023-09-08T19:07:04.453Z,75.28
2023-09-08T19:09:32.481Z,75.06
2023-09-08T19:12:00.526Z,74.83
2023-09-08T19:14:29.715Z,74.96
2023-09-08T19:17:01.661Z,74.85
2023-09-08T19:19:30.103Z,74.80
2023-09-08T19:21:58.097Z,75.35
2023-09-08T19:24:26.134Z,75.76
2023-09-08T19:26:54.443Z,76.00
2023-09-08T19:29:22.828Z,75.66
2023-09-08T19:31:50.805Z,75.55
2023-09-08T19:34:19.521Z,75.68
2023-09-08T19:36:47.494Z,75.75
2023-09-08T19:39:15.460Z,76.18
2023-09-08T19:41:43.629Z,76.58
2023-09-08T19:44:11.601Z,76.51
2023-09-08T19:46:39.678Z,76.22
2023-09-08T19:49:07.903Z,76.05
2023-09-08T19:51:36.097Z,76.38
2023-09-08T19:54:04.232Z,76.55
2023-09-08T19:56:32.170Z,76.74
2023-09-08T19:59:01.910Z,76.84
2023-09-08T20:01:31.906Z,76.79
2023-09-08T20:04:01.586Z,76.52
2023-09-08T20:06:29.652Z,76.67
2023-09-08T20:08:58.079Z,76.99
2023-09-08T20:11:26.354Z,76.78
2023-09-08T20:13:55.209Z,76.95
2023-09-08T20:16:23.280Z,76.80
2023-09-08T20:18:51.638Z,76.64
2023-09-08T20:21:19.692Z,76.68
2023-09-08T20:23:47.810Z,76.54
2023-09-08T20:26:15.758Z,76.56
2023-09-08T20:28:46.868Z,76.37
2023-09-08T20:31:17.481Z,76.38
2023-09-08T20:33:47.005Z,76.40
2023-09-08T20:36:16.031Z,76.54
2023-09-08T20:38:45.134Z,76.51
2023-09-08T20:41:13.694Z,76.60
2023-09-08T20:43:42.184Z,76.97
2023-09-08T20:46:10.277Z,77.10
2023-09-08T20:48:39.371Z,77.10
2023-09-08T20:51:11.821Z,76.96
2023-09-08T20:53:43.676Z,76.89
2023-09-08T20:56:11.869Z,76.82
2023-09-08T20:58:41.638Z,76.81
2023-09-08T21:01:10.833Z,76.88
2023-09-08T21:03:40.301Z,77.27
2023-09-08T21:06:11.015Z,77.26
2023-09-08T21:08:39.258Z,77.20
2023-09-08T21:11:07.682Z,77.37
2023-09-08T21:13:35.828Z,77.26
2023-09-08T21:16:04.397Z,77.10
2023-09-08T21:18:32.829Z,77.10
2023-09-08T21:21:00.911Z,77.01
2023-09-08T21:23:29.312Z,77.32
2023-09-08T21:25:57.457Z,77.22
2023-09-08T21:28:25.702Z,77.01
2023-09-08T21:31:08.776Z,77.26
2023-09-08T21:33:39.373Z,77.87
2023-09-08T21:36:11.982Z,78.10
2023-09-08T21:38:40.414Z,77.89
2023-09-08T21:41:10.916Z,77.76
2023-09-08T21:43:39.928Z,78.77
2023-09-08T21:46:09.940Z,78.17
2023-09-08T21:48:39.700Z,78.06
2023-09-08T21:51:08.482Z,78.17
2023-09-08T21:53:36.541Z,78.17
2023-09-08T21:56:04.718Z,78.04
2023-09-08T21:58:33.105Z,78.09
2023-09-08T22:01:01.964Z,78.38
2023-09-08T22:03:31.897Z,78.05
2023-09-08T22:06:00.461Z,77.90
2023-09-08T22:08:28.930Z,78.01
2023-09-08T22:11:06.097Z,77.89
2023-09-08T22:13:36.695Z,77.91
2023-09-08T22:16:06.369Z,77.63
2023-09-08T22:18:34.810Z,78.22
2023-09-08T22:21:03.787Z,78.96
2023-09-08T22:23:34.100Z,78.89
2023-09-08T22:26:03.869Z,78.56
2023-09-08T22:28:31.943Z,78.26
2023-09-08T22:31:00.086Z,78.43
2023-09-08T22:33:30.581Z,78.32
2023-09-08T22:35:59.357Z,77.92
2023-09-08T22:38:28.481Z,78.07
2023-09-08T22:40:56.720Z,77.95
2023-09-08T22:43:25.728Z,78.06
2023-09-08T22:45:54.793Z,78.01
2023-09-08T22:48:23.294Z,78.15
2023-09-08T22:50:51.814Z,78.35
2023-09-08T22:53:20.980Z,78.09
2023-09-08T22:55:49.125Z,78.15
2023-09-08T22:58:17.816Z,78.21
2023-09-08T23:00:46.057Z,78.43
2023-09-08T23:03:14.151Z,78.72
2023-09-08T23:05:42.466Z,78.70
2023-09-08T23:08:10.658Z,78.47
2023-09-08T23:10:38.781Z,78.37
2023-09-08T23:13:06.715Z,78.37
2023-09-08T23:15:34.912Z,78.43
2023-09-08T23:18:03.547Z,78.12
2023-09-08T23:20:31.666Z,77.85
2023-09-08T23:23:00.171Z,78.00
2023-09-08T23:25:28.481Z,77.94
2023-09-08T23:27:56.476Z,78.16
2023-09-08T23:30:24.751Z,78.14
2023-09-08T23:32:52.762Z,78.33
2023-09-08T23:35:20.900Z,78.55
2023-09-08T23:37:49.054Z,78.61
2023-09-08T23:40:18.070Z,78.61
2023-09-08T23:42:46.052Z,78.18
2023-09-08T23:45:14.247Z,77.92
2023-09-08T23:47:42.276Z,77.97
2023-09-08T23:50:10.527Z,78.20
2023-09-08T23:52:39.025Z,78.10
2023-09-08T23:55:07.492Z,77.98
2023-09-08T23:57:35.526Z,78.14
